sensor_id;sensor_type;location;lat;lon;timestamp;P1;durP1;ratioP1;P2;durP2;ratioP2
69551;SDS011;58993;45.320;11.864;2022-08-01T00:02:26;2.60;;;1.60;;
69551;SDS011;58993;45.320;11.864;2022-08-01T00:04:56;3.10;;;1.70;;
69551;SDS011;58993;45.320;11.864;2022-08-01T00:07:21;2.60;;;1.80;;
69551;SDS011;58993;45.320;11.864;2022-08-01T00:09:47;5.40;;;2.00;;
69551;SDS011;58993;45.320;11.864;2022-08-01T00:12:13;2.50;;;1.70;;
69551;SDS011;58993;45.320;11.864;2022-08-01T00:14:38;2.80;;;1.70;;
69551;SDS011;58993;45.320;11.864;2022-08-01T00:17:04;3.10;;;1.60;;
69551;SDS011;58993;45.320;11.864;2022-08-01T00:19:29;2.90;;;1.80;;
69551;SDS011;58993;45.320;11.864;2022-08-01T00:21:55;2.50;;;1.80;;
69551;SDS011;58993;45.320;11.864;2022-08-01T00:24:21;2.80;;;1.70;;
69551;SDS011;58993;45.320;11.864;2022-08-01T00:26:46;2.00;;;1.80;;
69551;SDS011;58993;45.320;11.864;2022-08-01T00:29:12;3.10;;;1.90;;
69551;SDS011;58993;45.320;11.864;2022-08-01T00:31:37;2.10;;;1.70;;
69551;SDS011;58993;45.320;11.864;2022-08-01T00:34:02;2.10;;;1.60;;
69551;SDS011;58993;45.320;11.864;2022-08-01T00:36:28;3.40;;;1.90;;
69551;SDS011;58993;45.320;11.864;2022-08-01T00:38:53;2.40;;;1.90;;
69551;SDS011;58993;45.320;11.864;2022-08-01T00:41:19;2.60;;;1.60;;
69551;SDS011;58993;45.320;11.864;2022-08-01T00:43:44;2.90;;;1.90;;
69551;SDS011;58993;45.320;11.864;2022-08-01T00:46:10;2.50;;;1.90;;
69551;SDS011;58993;45.320;11.864;2022-08-01T00:48:35;2.70;;;1.80;;
69551;SDS011;58993;45.320;11.864;2022-08-01T00:51:01;3.10;;;1.80;;
69551;SDS011;58993;45.320;11.864;2022-08-01T00:53:28;2.40;;;1.90;;
69551;SDS011;58993;45.320;11.864;2022-08-01T00:55:54;3.50;;;1.90;;
69551;SDS011;58993;45.320;11.864;2022-08-01T00:58:21;3.40;;;1.80;;
69551;SDS011;58993;45.320;11.864;2022-08-01T01:00:48;3.90;;;2.10;;
69551;SDS011;58993;45.320;11.864;2022-08-01T01:03:13;3.10;;;1.90;;
69551;SDS011;58993;45.320;11.864;2022-08-01T01:05:42;3.40;;;2.10;;
69551;SDS011;58993;45.320;11.864;2022-08-01T01:08:39;3.10;;;2.00;;
69551;SDS011;58993;45.320;11.864;2022-08-01T01:11:17;3.20;;;1.70;;
69551;SDS011;58993;45.320;11.864;2022-08-01T01:14:00;2.60;;;1.90;;
69551;SDS011;58993;45.320;11.864;2022-08-01T01:16:33;3.10;;;1.80;;
69551;SDS011;58993;45.320;11.864;2022-08-01T01:19:05;3.30;;;1.80;;
69551;SDS011;58993;45.320;11.864;2022-08-01T01:29:41;3.40;;;1.60;;
69551;SDS011;58993;45.320;11.864;2022-08-01T01:32:23;2.20;;;1.80;;
69551;SDS011;58993;45.320;11.864;2022-08-01T01:35:16;2.30;;;1.80;;
69551;SDS011;58993;45.320;11.864;2022-08-01T01:37:46;2.70;;;1.80;;
69551;SDS011;58993;45.320;11.864;2022-08-01T01:40:15;5.20;;;2.10;;
69551;SDS011;58993;45.320;11.864;2022-08-01T01:42:42;2.80;;;1.80;;
69551;SDS011;58993;45.320;11.864;2022-08-01T01:45:09;4.30;;;1.70;;
69551;SDS011;58993;45.320;11.864;2022-08-01T01:47:36;2.80;;;2.00;;
69551;SDS011;58993;45.320;11.864;2022-08-01T01:50:03;3.30;;;1.80;;
69551;SDS011;58993;45.320;11.864;2022-08-01T01:52:31;2.50;;;2.00;;
69551;SDS011;58993;45.320;11.864;2022-08-01T01:54:59;2.20;;;1.70;;
69551;SDS011;58993;45.320;11.864;2022-08-01T01:57:27;3.30;;;2.40;;
69551;SDS011;58993;45.320;11.864;2022-08-01T01:59:54;4.70;;;2.00;;
69551;SDS011;58993;45.320;11.864;2022-08-01T02:02:21;2.70;;;2.20;;
69551;SDS011;58993;45.320;11.864;2022-08-01T02:04:49;3.60;;;2.20;;
69551;SDS011;58993;45.320;11.864;2022-08-01T02:07:20;2.30;;;1.90;;
69551;SDS011;58993;45.320;11.864;2022-08-01T02:09:49;2.40;;;1.80;;
69551;SDS011;58993;45.320;11.864;2022-08-01T02:12:16;2.70;;;1.90;;
69551;SDS011;58993;45.320;11.864;2022-08-01T02:14:44;3.20;;;2.00;;
69551;SDS011;58993;45.320;11.864;2022-08-01T02:17:12;2.70;;;1.90;;
69551;SDS011;58993;45.320;11.864;2022-08-01T02:19:42;2.40;;;2.10;;
69551;SDS011;58993;45.320;11.864;2022-08-01T02:22:10;2.70;;;1.90;;
69551;SDS011;58993;45.320;11.864;2022-08-01T02:27:29;2.50;;;2.20;;
69551;SDS011;58993;45.320;11.864;2022-08-01T02:30:03;2.80;;;2.40;;
69551;SDS011;58993;45.320;11.864;2022-08-01T02:32:33;4.00;;;2.30;;
69551;SDS011;58993;45.320;11.864;2022-08-01T02:35:03;3.50;;;2.30;;
69551;SDS011;58993;45.320;11.864;2022-08-01T02:37:33;4.30;;;2.30;;
69551;SDS011;58993;45.320;11.864;2022-08-01T02:40:02;2.90;;;2.40;;
69551;SDS011;58993;45.320;11.864;2022-08-01T02:42:29;4.40;;;2.20;;
69551;SDS011;58993;45.320;11.864;2022-08-01T02:44:56;4.80;;;2.40;;
69551;SDS011;58993;45.320;11.864;2022-08-01T02:47:22;2.80;;;2.30;;
69551;SDS011;58993;45.320;11.864;2022-08-01T02:49:50;4.70;;;2.70;;
69551;SDS011;58993;45.320;11.864;2022-08-01T02:52:17;3.80;;;2.40;;
69551;SDS011;58993;45.320;11.864;2022-08-01T02:54:45;4.30;;;2.30;;
69551;SDS011;58993;45.320;11.864;2022-08-01T02:57:14;5.50;;;2.50;;
69551;SDS011;58993;45.320;11.864;2022-08-01T02:59:41;3.90;;;2.60;;
69551;SDS011;58993;45.320;11.864;2022-08-01T03:02:09;4.00;;;2.40;;
69551;SDS011;58993;45.320;11.864;2022-08-01T03:04:37;4.30;;;2.60;;
69551;SDS011;58993;45.320;11.864;2022-08-01T03:07:05;4.60;;;2.70;;
69551;SDS011;58993;45.320;11.864;2022-08-01T03:09:33;3.50;;;2.40;;
69551;SDS011;58993;45.320;11.864;2022-08-01T03:12:08;4.10;;;2.70;;
69551;SDS011;58993;45.320;11.864;2022-08-01T03:14:39;4.40;;;3.10;;
69551;SDS011;58993;45.320;11.864;2022-08-01T03:17:07;2.90;;;2.60;;
69551;SDS011;58993;45.320;11.864;2022-08-01T03:19:34;5.40;;;2.60;;
69551;SDS011;58993;45.320;11.864;2022-08-01T03:22:02;4.80;;;2.80;;
69551;SDS011;58993;45.320;11.864;2022-08-01T03:24:32;4.20;;;2.70;;
69551;SDS011;58993;45.320;11.864;2022-08-01T03:26:59;4.80;;;2.90;;
69551;SDS011;58993;45.320;11.864;2022-08-01T03:29:27;5.10;;;3.20;;
69551;SDS011;58993;45.320;11.864;2022-08-01T03:31:55;6.80;;;3.30;;
69551;SDS011;58993;45.320;11.864;2022-08-01T03:34:21;4.90;;;3.20;;
69551;SDS011;58993;45.320;11.864;2022-08-01T03:36:48;4.00;;;2.90;;
69551;SDS011;58993;45.320;11.864;2022-08-01T03:39:18;4.40;;;2.90;;
69551;SDS011;58993;45.320;11.864;2022-08-01T03:41:54;3.80;;;2.80;;
69551;SDS011;58993;45.320;11.864;2022-08-01T03:44:24;4.90;;;3.50;;
69551;SDS011;58993;45.320;11.864;2022-08-01T03:46:58;4.70;;;3.50;;
69551;SDS011;58993;45.320;11.864;2022-08-01T03:49:30;5.00;;;3.50;;
69551;SDS011;58993;45.320;11.864;2022-08-01T03:51:59;3.90;;;3.50;;
69551;SDS011;58993;45.320;11.864;2022-08-01T03:54:28;5.50;;;3.80;;
69551;SDS011;58993;45.320;11.864;2022-08-01T03:56:59;6.80;;;4.20;;
69551;SDS011;58993;45.320;11.864;2022-08-01T03:59:26;5.80;;;3.90;;
69551;SDS011;58993;45.320;11.864;2022-08-01T04:01:52;5.70;;;3.80;;
69551;SDS011;58993;45.320;11.864;2022-08-01T04:04:20;5.20;;;4.10;;
69551;SDS011;58993;45.320;11.864;2022-08-01T04:06:46;5.10;;;4.10;;
69551;SDS011;58993;45.320;11.864;2022-08-01T04:09:15;6.40;;;4.20;;
69551;SDS011;58993;45.320;11.864;2022-08-01T04:11:41;4.70;;;3.80;;
69551;SDS011;58993;45.320;11.864;2022-08-01T04:14:06;7.10;;;4.30;;
69551;SDS011;58993;45.320;11.864;2022-08-01T04:16:32;5.00;;;4.30;;
69551;SDS011;58993;45.320;11.864;2022-08-01T04:18:59;5.50;;;4.00;;
69551;SDS011;58993;45.320;11.864;2022-08-01T04:21:25;7.00;;;4.10;;
69551;SDS011;58993;45.320;11.864;2022-08-01T04:23:59;4.80;;;4.00;;
69551;SDS011;58993;45.320;11.864;2022-08-01T04:26:32;5.90;;;4.20;;
69551;SDS011;58993;45.320;11.864;2022-08-01T04:29:02;6.10;;;3.80;;
69551;SDS011;58993;45.320;11.864;2022-08-01T04:31:31;5.70;;;4.00;;
69551;SDS011;58993;45.320;11.864;2022-08-01T04:33:57;5.60;;;3.90;;
69551;SDS011;58993;45.320;11.864;2022-08-01T04:36:25;6.70;;;3.90;;
69551;SDS011;58993;45.320;11.864;2022-08-01T04:38:55;7.40;;;4.10;;
69551;SDS011;58993;45.320;11.864;2022-08-01T04:41:24;6.00;;;4.20;;
69551;SDS011;58993;45.320;11.864;2022-08-01T04:43:50;6.00;;;4.00;;
69551;SDS011;58993;45.320;11.864;2022-08-01T04:46:17;6.40;;;4.60;;
69551;SDS011;58993;45.320;11.864;2022-08-01T04:48:44;5.00;;;3.90;;
69551;SDS011;58993;45.320;11.864;2022-08-01T04:51:14;5.40;;;3.80;;
69551;SDS011;58993;45.320;11.864;2022-08-01T04:53:41;6.50;;;3.90;;
69551;SDS011;58993;45.320;11.864;2022-08-01T04:56:07;5.40;;;3.60;;
69551;SDS011;58993;45.320;11.864;2022-08-01T04:58:33;4.80;;;3.90;;
69551;SDS011;58993;45.320;11.864;2022-08-01T05:00:59;6.10;;;3.90;;
69551;SDS011;58993;45.320;11.864;2022-08-01T05:03:24;4.50;;;3.50;;
69551;SDS011;58993;45.320;11.864;2022-08-01T05:05:49;5.50;;;3.60;;
69551;SDS011;58993;45.320;11.864;2022-08-01T05:08:15;4.70;;;3.60;;
69551;SDS011;58993;45.320;11.864;2022-08-01T05:10:41;5.30;;;3.60;;
69551;SDS011;58993;45.320;11.864;2022-08-01T05:13:07;5.90;;;3.40;;
69551;SDS011;58993;45.320;11.864;2022-08-01T05:15:32;4.70;;;3.30;;
69551;SDS011;58993;45.320;11.864;2022-08-01T05:17:59;4.30;;;3.20;;
69551;SDS011;58993;45.320;11.864;2022-08-01T05:20:25;4.50;;;3.10;;
69551;SDS011;58993;45.320;11.864;2022-08-01T05:22:51;5.10;;;3.30;;
69551;SDS011;58993;45.320;11.864;2022-08-01T05:25:17;4.10;;;3.40;;
69551;SDS011;58993;45.320;11.864;2022-08-01T05:27:42;3.90;;;3.00;;
69551;SDS011;58993;45.320;11.864;2022-08-01T05:30:08;3.70;;;3.10;;
69551;SDS011;58993;45.320;11.864;2022-08-01T05:32:35;4.60;;;3.10;;
69551;SDS011;58993;45.320;11.864;2022-08-01T05:35:00;3.80;;;3.00;;
69551;SDS011;58993;45.320;11.864;2022-08-01T05:37:26;5.20;;;3.00;;
69551;SDS011;58993;45.320;11.864;2022-08-01T05:39:52;8.50;;;3.80;;
69551;SDS011;58993;45.320;11.864;2022-08-01T05:42:17;4.90;;;3.20;;
69551;SDS011;58993;45.320;11.864;2022-08-01T05:44:43;4.60;;;3.60;;
69551;SDS011;58993;45.320;11.864;2022-08-01T05:47:08;5.70;;;3.70;;
69551;SDS011;58993;45.320;11.864;2022-08-01T05:49:33;6.70;;;3.80;;
69551;SDS011;58993;45.320;11.864;2022-08-01T05:51:59;5.00;;;4.00;;
69551;SDS011;58993;45.320;11.864;2022-08-01T05:54:26;5.40;;;4.00;;
69551;SDS011;58993;45.320;11.864;2022-08-01T05:56:52;6.90;;;4.50;;
69551;SDS011;58993;45.320;11.864;2022-08-01T05:59:17;7.80;;;4.40;;
69551;SDS011;58993;45.320;11.864;2022-08-01T06:01:43;8.20;;;4.30;;
69551;SDS011;58993;45.320;11.864;2022-08-01T06:04:09;5.40;;;4.20;;
69551;SDS011;58993;45.320;11.864;2022-08-01T06:06:34;6.10;;;4.40;;
69551;SDS011;58993;45.320;11.864;2022-08-01T06:08:59;7.80;;;4.60;;
69551;SDS011;58993;45.320;11.864;2022-08-01T06:11:25;6.20;;;4.30;;
69551;SDS011;58993;45.320;11.864;2022-08-01T06:13:50;5.00;;;4.20;;
69551;SDS011;58993;45.320;11.864;2022-08-01T06:16:16;7.30;;;4.00;;
69551;SDS011;58993;45.320;11.864;2022-08-01T06:18:41;7.00;;;4.90;;
69551;SDS011;58993;45.320;11.864;2022-08-01T06:21:07;8.30;;;4.80;;
69551;SDS011;58993;45.320;11.864;2022-08-01T06:23:32;5.30;;;4.40;;
69551;SDS011;58993;45.320;11.864;2022-08-01T06:25:58;5.50;;;4.30;;
69551;SDS011;58993;45.320;11.864;2022-08-01T06:28:23;7.70;;;3.90;;
69551;SDS011;58993;45.320;11.864;2022-08-01T06:30:49;5.60;;;4.00;;
69551;SDS011;58993;45.320;11.864;2022-08-01T06:33:15;4.70;;;3.70;;
69551;SDS011;58993;45.320;11.864;2022-08-01T06:35:41;6.90;;;4.10;;
69551;SDS011;58993;45.320;11.864;2022-08-01T06:38:06;7.40;;;4.30;;
69551;SDS011;58993;45.320;11.864;2022-08-01T06:40:32;6.40;;;4.20;;
69551;SDS011;58993;45.320;11.864;2022-08-01T06:42:57;5.00;;;3.90;;
69551;SDS011;58993;45.320;11.864;2022-08-01T06:45:23;6.30;;;4.30;;
69551;SDS011;58993;45.320;11.864;2022-08-01T06:47:50;7.40;;;4.90;;
69551;SDS011;58993;45.320;11.864;2022-08-01T06:50:16;6.50;;;4.60;;
69551;SDS011;58993;45.320;11.864;2022-08-01T06:52:41;6.60;;;4.50;;
69551;SDS011;58993;45.320;11.864;2022-08-01T06:55:07;6.30;;;4.80;;
69551;SDS011;58993;45.320;11.864;2022-08-01T06:57:33;6.60;;;4.80;;
69551;SDS011;58993;45.320;11.864;2022-08-01T07:00:01;6.90;;;4.60;;
69551;SDS011;58993;45.320;11.864;2022-08-01T07:02:35;5.90;;;4.30;;
69551;SDS011;58993;45.320;11.864;2022-08-01T07:05:02;4.80;;;4.00;;
69551;SDS011;58993;45.320;11.864;2022-08-01T07:07:29;5.30;;;4.20;;
69551;SDS011;58993;45.320;11.864;2022-08-01T07:09:55;6.30;;;4.10;;
69551;SDS011;58993;45.320;11.864;2022-08-01T07:12:20;6.40;;;4.70;;
69551;SDS011;58993;45.320;11.864;2022-08-01T07:14:46;6.50;;;4.40;;
69551;SDS011;58993;45.320;11.864;2022-08-01T07:17:12;5.50;;;4.20;;
69551;SDS011;58993;45.320;11.864;2022-08-01T07:19:38;5.90;;;3.80;;
69551;SDS011;58993;45.320;11.864;2022-08-01T07:22:03;5.30;;;3.80;;
69551;SDS011;58993;45.320;11.864;2022-08-01T07:24:28;6.30;;;3.50;;
69551;SDS011;58993;45.320;11.864;2022-08-01T07:26:54;5.90;;;4.10;;
69551;SDS011;58993;45.320;11.864;2022-08-01T07:29:20;4.50;;;3.90;;
69551;SDS011;58993;45.320;11.864;2022-08-01T07:31:47;5.00;;;4.00;;
69551;SDS011;58993;45.320;11.864;2022-08-01T07:34:13;5.90;;;4.30;;
69551;SDS011;58993;45.320;11.864;2022-08-01T07:36:38;5.00;;;4.30;;
69551;SDS011;58993;45.320;11.864;2022-08-01T07:39:03;5.90;;;3.70;;
69551;SDS011;58993;45.320;11.864;2022-08-01T07:41:29;5.70;;;4.00;;
69551;SDS011;58993;45.320;11.864;2022-08-01T07:43:54;4.50;;;3.60;;
69551;SDS011;58993;45.320;11.864;2022-08-01T07:46:20;4.30;;;3.70;;
69551;SDS011;58993;45.320;11.864;2022-08-01T07:48:45;6.50;;;4.00;;
69551;SDS011;58993;45.320;11.864;2022-08-01T07:51:11;6.80;;;4.70;;
69551;SDS011;58993;45.320;11.864;2022-08-01T07:53:37;6.00;;;4.00;;
69551;SDS011;58993;45.320;11.864;2022-08-01T07:56:03;6.60;;;4.20;;
69551;SDS011;58993;45.320;11.864;2022-08-01T07:58:31;7.10;;;4.50;;
69551;SDS011;58993;45.320;11.864;2022-08-01T08:00:56;4.80;;;4.00;;
69551;SDS011;58993;45.320;11.864;2022-08-01T08:03:22;5.10;;;4.20;;
69551;SDS011;58993;45.320;11.864;2022-08-01T08:05:47;5.40;;;3.90;;
69551;SDS011;58993;45.320;11.864;2022-08-01T08:08:13;4.90;;;4.00;;
69551;SDS011;58993;45.320;11.864;2022-08-01T08:10:40;6.70;;;4.40;;
69551;SDS011;58993;45.320;11.864;2022-08-01T08:13:06;4.80;;;4.00;;
69551;SDS011;58993;45.320;11.864;2022-08-01T08:15:31;6.00;;;4.70;;
69551;SDS011;58993;45.320;11.864;2022-08-01T08:17:57;4.80;;;3.70;;
69551;SDS011;58993;45.320;11.864;2022-08-01T08:20:22;5.60;;;4.00;;
69551;SDS011;58993;45.320;11.864;2022-08-01T08:22:52;6.30;;;3.60;;
69551;SDS011;58993;45.320;11.864;2022-08-01T08:25:18;7.60;;;3.70;;
69551;SDS011;58993;45.320;11.864;2022-08-01T08:27:44;4.50;;;3.40;;
69551;SDS011;58993;45.320;11.864;2022-08-01T08:30:11;3.80;;;2.70;;
69551;SDS011;58993;45.320;11.864;2022-08-01T08:32:37;6.10;;;3.20;;
69551;SDS011;58993;45.320;11.864;2022-08-01T08:35:03;3.60;;;2.60;;
69551;SDS011;58993;45.320;11.864;2022-08-01T08:37:29;3.40;;;2.50;;
69551;SDS011;58993;45.320;11.864;2022-08-01T08:39:56;3.40;;;2.40;;
69551;SDS011;58993;45.320;11.864;2022-08-01T08:42:22;4.20;;;2.40;;
69551;SDS011;58993;45.320;11.864;2022-08-01T08:44:47;4.90;;;2.80;;
69551;SDS011;58993;45.320;11.864;2022-08-01T08:47:13;2.60;;;2.30;;
69551;SDS011;58993;45.320;11.864;2022-08-01T08:49:41;3.70;;;2.40;;
69551;SDS011;58993;45.320;11.864;2022-08-01T08:52:08;3.40;;;2.50;;
69551;SDS011;58993;45.320;11.864;2022-08-01T08:54:35;3.40;;;2.20;;
69551;SDS011;58993;45.320;11.864;2022-08-01T08:57:02;3.10;;;2.60;;
69551;SDS011;58993;45.320;11.864;2022-08-01T08:59:28;3.30;;;2.40;;
69551;SDS011;58993;45.320;11.864;2022-08-01T09:01:55;4.60;;;2.40;;
69551;SDS011;58993;45.320;11.864;2022-08-01T09:04:21;3.40;;;2.30;;
69551;SDS011;58993;45.320;11.864;2022-08-01T09:06:50;2.70;;;1.90;;
69551;SDS011;58993;45.320;11.864;2022-08-01T09:09:16;2.30;;;2.00;;
69551;SDS011;58993;45.320;11.864;2022-08-01T09:11:42;3.30;;;2.00;;
69551;SDS011;58993;45.320;11.864;2022-08-01T09:16:47;2.70;;;1.90;;
69551;SDS011;58993;45.320;11.864;2022-08-01T09:19:24;3.60;;;2.00;;
69551;SDS011;58993;45.320;11.864;2022-08-01T09:22:00;4.30;;;2.00;;
69551;SDS011;58993;45.320;11.864;2022-08-01T09:24:28;3.80;;;1.90;;
69551;SDS011;58993;45.320;11.864;2022-08-01T09:26:55;4.20;;;2.00;;
69551;SDS011;58993;45.320;11.864;2022-08-01T09:29:22;3.70;;;2.10;;
69551;SDS011;58993;45.320;11.864;2022-08-01T09:31:49;3.10;;;2.10;;
69551;SDS011;58993;45.320;11.864;2022-08-01T09:34:16;2.60;;;2.00;;
69551;SDS011;58993;45.320;11.864;2022-08-01T09:36:51;3.10;;;2.10;;
69551;SDS011;58993;45.320;11.864;2022-08-01T09:39:19;5.50;;;2.40;;
69551;SDS011;58993;45.320;11.864;2022-08-01T09:41:47;2.40;;;2.00;;
69551;SDS011;58993;45.320;11.864;2022-08-01T09:44:13;3.80;;;2.20;;
69551;SDS011;58993;45.320;11.864;2022-08-01T09:46:54;4.20;;;2.30;;
69551;SDS011;58993;45.320;11.864;2022-08-01T09:49:28;3.30;;;2.10;;
69551;SDS011;58993;45.320;11.864;2022-08-01T09:51:59;3.70;;;2.20;;
69551;SDS011;58993;45.320;11.864;2022-08-01T09:54:35;2.40;;;1.90;;
69551;SDS011;58993;45.320;11.864;2022-08-01T09:57:07;3.60;;;2.10;;
69551;SDS011;58993;45.320;11.864;2022-08-01T09:59:37;2.50;;;2.10;;
69551;SDS011;58993;45.320;11.864;2022-08-01T10:02:07;5.30;;;2.30;;
69551;SDS011;58993;45.320;11.864;2022-08-01T10:04:45;4.00;;;2.20;;
69551;SDS011;58993;45.320;11.864;2022-08-01T10:07:12;2.00;;;1.70;;
69551;SDS011;58993;45.320;11.864;2022-08-01T10:09:40;3.30;;;2.00;;
69551;SDS011;58993;45.320;11.864;2022-08-01T10:12:07;4.60;;;2.10;;
69551;SDS011;58993;45.320;11.864;2022-08-01T10:14:33;3.10;;;1.90;;
69551;SDS011;58993;45.320;11.864;2022-08-01T10:17:00;2.80;;;1.90;;
69551;SDS011;58993;45.320;11.864;2022-08-01T10:19:27;2.20;;;1.70;;
69551;SDS011;58993;45.320;11.864;2022-08-01T10:21:54;2.20;;;1.80;;
69551;SDS011;58993;45.320;11.864;2022-08-01T10:24:22;2.30;;;1.70;;
69551;SDS011;58993;45.320;11.864;2022-08-01T10:26:49;2.20;;;1.90;;
69551;SDS011;58993;45.320;11.864;2022-08-01T10:29:17;2.30;;;1.90;;
69551;SDS011;58993;45.320;11.864;2022-08-01T10:31:45;3.40;;;1.90;;
69551;SDS011;58993;45.320;11.864;2022-08-01T10:34:12;2.30;;;1.80;;
69551;SDS011;58993;45.320;11.864;2022-08-01T10:36:46;2.10;;;1.60;;
69551;SDS011;58993;45.320;11.864;2022-08-01T10:39:13;2.30;;;1.70;;
69551;SDS011;58993;45.320;11.864;2022-08-01T10:41:44;1.90;;;1.60;;
69551;SDS011;58993;45.320;11.864;2022-08-01T10:44:10;2.60;;;1.60;;
69551;SDS011;58993;45.320;11.864;2022-08-01T10:46:39;2.60;;;1.60;;
69551;SDS011;58993;45.320;11.864;2022-08-01T10:49:10;4.30;;;1.60;;
69551;SDS011;58993;45.320;11.864;2022-08-01T10:51:40;2.30;;;1.50;;
69551;SDS011;58993;45.320;11.864;2022-08-01T10:54:07;1.80;;;1.50;;
69551;SDS011;58993;45.320;11.864;2022-08-01T10:56:44;3.70;;;1.60;;
69551;SDS011;58993;45.320;11.864;2022-08-01T10:59:19;4.40;;;1.50;;
69551;SDS011;58993;45.320;11.864;2022-08-01T11:02:03;2.60;;;1.60;;
69551;SDS011;58993;45.320;11.864;2022-08-01T11:04:33;2.20;;;1.70;;
69551;SDS011;58993;45.320;11.864;2022-08-01T11:07:18;2.20;;;1.50;;
69551;SDS011;58993;45.320;11.864;2022-08-01T11:09:47;3.70;;;1.40;;
69551;SDS011;58993;45.320;11.864;2022-08-01T11:12:39;3.70;;;1.60;;
69551;SDS011;58993;45.320;11.864;2022-08-01T11:17:33;2.00;;;1.40;;
69551;SDS011;58993;45.320;11.864;2022-08-01T11:20:08;2.30;;;1.40;;
69551;SDS011;58993;45.320;11.864;2022-08-01T11:30:41;2.20;;;1.50;;
69551;SDS011;58993;45.320;11.864;2022-08-01T11:33:14;2.30;;;1.40;;
69551;SDS011;58993;45.320;11.864;2022-08-01T11:36:16;1.50;;;1.30;;
69551;SDS011;58993;45.320;11.864;2022-08-01T11:38:43;1.60;;;1.40;;
69551;SDS011;58993;45.320;11.864;2022-08-01T11:41:09;3.20;;;1.50;;
69551;SDS011;58993;45.320;11.864;2022-08-01T11:43:53;2.20;;;1.40;;
69551;SDS011;58993;45.320;11.864;2022-08-01T11:49:22;2.30;;;1.70;;
69551;SDS011;58993;45.320;11.864;2022-08-01T11:51:49;1.90;;;1.40;;
69551;SDS011;58993;45.320;11.864;2022-08-01T11:54:24;2.80;;;1.70;;
69551;SDS011;58993;45.320;11.864;2022-08-01T11:56:53;2.00;;;1.50;;
69551;SDS011;58993;45.320;11.864;2022-08-01T11:59:21;2.60;;;1.60;;
69551;SDS011;58993;45.320;11.864;2022-08-01T12:01:47;2.90;;;1.80;;
69551;SDS011;58993;45.320;11.864;2022-08-01T12:04:13;2.90;;;2.00;;
69551;SDS011;58993;45.320;11.864;2022-08-01T12:06:38;3.60;;;2.20;;
69551;SDS011;58993;45.320;11.864;2022-08-01T12:11:44;4.00;;;1.80;;
69551;SDS011;58993;45.320;11.864;2022-08-01T12:14:17;2.60;;;1.60;;
69551;SDS011;58993;45.320;11.864;2022-08-01T12:16:48;2.60;;;2.00;;
69551;SDS011;58993;45.320;11.864;2022-08-01T12:19:22;3.20;;;1.70;;
69551;SDS011;58993;45.320;11.864;2022-08-01T12:24:36;3.00;;;1.90;;
69551;SDS011;58993;45.320;11.864;2022-08-01T12:27:04;2.90;;;2.10;;
69551;SDS011;58993;45.320;11.864;2022-08-01T12:29:34;2.30;;;1.70;;
69551;SDS011;58993;45.320;11.864;2022-08-01T12:32:02;3.60;;;1.90;;
69551;SDS011;58993;45.320;11.864;2022-08-01T12:34:28;3.80;;;2.50;;
69551;SDS011;58993;45.320;11.864;2022-08-01T12:36:59;3.80;;;2.20;;
69551;SDS011;58993;45.320;11.864;2022-08-01T12:39:33;2.50;;;1.90;;
69551;SDS011;58993;45.320;11.864;2022-08-01T12:41:59;2.20;;;1.90;;
69551;SDS011;58993;45.320;11.864;2022-08-01T12:44:26;2.40;;;1.80;;
69551;SDS011;58993;45.320;11.864;2022-08-01T12:46:54;2.10;;;1.90;;
69551;SDS011;58993;45.320;11.864;2022-08-01T12:49:19;4.80;;;2.30;;
69551;SDS011;58993;45.320;11.864;2022-08-01T12:51:46;5.20;;;2.50;;
69551;SDS011;58993;45.320;11.864;2022-08-01T12:54:11;5.30;;;2.70;;
69551;SDS011;58993;45.320;11.864;2022-08-01T12:56:37;4.60;;;2.70;;
69551;SDS011;58993;45.320;11.864;2022-08-01T12:59:18;5.70;;;2.90;;
69551;SDS011;58993;45.320;11.864;2022-08-01T13:01:47;4.20;;;2.90;;
69551;SDS011;58993;45.320;11.864;2022-08-01T13:04:13;3.40;;;2.60;;
69551;SDS011;58993;45.320;11.864;2022-08-01T13:06:38;4.50;;;2.80;;
69551;SDS011;58993;45.320;11.864;2022-08-01T13:09:07;4.10;;;2.20;;
69551;SDS011;58993;45.320;11.864;2022-08-01T13:11:35;4.60;;;2.50;;
69551;SDS011;58993;45.320;11.864;2022-08-01T13:14:02;5.50;;;2.50;;
69551;SDS011;58993;45.320;11.864;2022-08-01T13:16:27;2.60;;;2.10;;
69551;SDS011;58993;45.320;11.864;2022-08-01T13:18:56;5.40;;;3.10;;
69551;SDS011;58993;45.320;11.864;2022-08-01T13:21:29;4.40;;;2.60;;
69551;SDS011;58993;45.320;11.864;2022-08-01T13:29:19;4.60;;;2.80;;
69551;SDS011;58993;45.320;11.864;2022-08-01T13:32:19;2.50;;;2.10;;
69551;SDS011;58993;45.320;11.864;2022-08-01T13:34:47;2.00;;;1.60;;
69551;SDS011;58993;45.320;11.864;2022-08-01T13:37:13;4.80;;;2.10;;
69551;SDS011;58993;45.320;11.864;2022-08-01T13:39:38;4.50;;;1.90;;
69551;SDS011;58993;45.320;11.864;2022-08-01T13:42:11;3.30;;;1.90;;
69551;SDS011;58993;45.320;11.864;2022-08-01T13:44:38;1.60;;;1.50;;
69551;SDS011;58993;45.320;11.864;2022-08-01T13:47:04;2.50;;;2.10;;
69551;SDS011;58993;45.320;11.864;2022-08-01T13:49:30;2.40;;;1.80;;
69551;SDS011;58993;45.320;11.864;2022-08-01T13:51:57;4.00;;;2.60;;
69551;SDS011;58993;45.320;11.864;2022-08-01T13:54:23;2.70;;;2.00;;
69551;SDS011;58993;45.320;11.864;2022-08-01T13:56:49;3.60;;;2.20;;
69551;SDS011;58993;45.320;11.864;2022-08-01T13:59:15;4.20;;;1.90;;
69551;SDS011;58993;45.320;11.864;2022-08-01T14:01:40;2.40;;;1.80;;
69551;SDS011;58993;45.320;11.864;2022-08-01T14:04:06;2.80;;;2.00;;
69551;SDS011;58993;45.320;11.864;2022-08-01T14:06:32;2.60;;;2.00;;
69551;SDS011;58993;45.320;11.864;2022-08-01T14:08:59;3.90;;;2.00;;
69551;SDS011;58993;45.320;11.864;2022-08-01T14:11:24;2.50;;;1.90;;
69551;SDS011;58993;45.320;11.864;2022-08-01T14:13:50;1.60;;;1.50;;
69551;SDS011;58993;45.320;11.864;2022-08-01T14:16:16;3.30;;;2.10;;
69551;SDS011;58993;45.320;11.864;2022-08-01T14:18:42;7.10;;;1.60;;
69551;SDS011;58993;45.320;11.864;2022-08-01T14:21:08;1.80;;;1.60;;
69551;SDS011;58993;45.320;11.864;2022-08-01T14:23:33;3.70;;;1.80;;
69551;SDS011;58993;45.320;11.864;2022-08-01T14:25:59;2.20;;;1.50;;
69551;SDS011;58993;45.320;11.864;2022-08-01T14:28:24;2.80;;;1.50;;
69551;SDS011;58993;45.320;11.864;2022-08-01T14:30:52;1.70;;;1.60;;
69551;SDS011;58993;45.320;11.864;2022-08-01T14:33:20;1.50;;;1.30;;
69551;SDS011;58993;45.320;11.864;2022-08-01T14:35:46;2.50;;;1.60;;
69551;SDS011;58993;45.320;11.864;2022-08-01T14:38:11;1.60;;;1.50;;
69551;SDS011;58993;45.320;11.864;2022-08-01T14:40:37;3.60;;;1.70;;
69551;SDS011;58993;45.320;11.864;2022-08-01T14:43:02;3.10;;;2.00;;
69551;SDS011;58993;45.320;11.864;2022-08-01T14:45:28;2.50;;;1.90;;
69551;SDS011;58993;45.320;11.864;2022-08-01T14:47:54;3.40;;;2.00;;
69551;SDS011;58993;45.320;11.864;2022-08-01T14:50:19;3.00;;;1.70;;
69551;SDS011;58993;45.320;11.864;2022-08-01T14:52:45;3.40;;;1.70;;
69551;SDS011;58993;45.320;11.864;2022-08-01T14:55:11;3.20;;;1.70;;
69551;SDS011;58993;45.320;11.864;2022-08-01T14:57:38;2.20;;;1.70;;
69551;SDS011;58993;45.320;11.864;2022-08-01T15:00:04;2.90;;;1.50;;
69551;SDS011;58993;45.320;11.864;2022-08-01T15:02:36;2.40;;;1.70;;
69551;SDS011;58993;45.320;11.864;2022-08-01T15:05:01;2.10;;;1.90;;
69551;SDS011;58993;45.320;11.864;2022-08-01T15:07:27;1.60;;;1.50;;
69551;SDS011;58993;45.320;11.864;2022-08-01T15:09:52;2.90;;;1.70;;
69551;SDS011;58993;45.320;11.864;2022-08-01T15:12:18;3.10;;;1.80;;
69551;SDS011;58993;45.320;11.864;2022-08-01T15:14:43;2.20;;;1.90;;
69551;SDS011;58993;45.320;11.864;2022-08-01T15:17:18;3.30;;;1.90;;